sensor_id;sensor_type;location;lat;lon;timestamp;P1;durP1;ratioP1;P2;durP2;ratioP2
15063;SDS011;7631;52.088;5.088;2023-03-13T00:01:25;6.53;;;2.50;;
15063;SDS011;7631;52.088;5.088;2023-03-13T00:03:51;6.43;;;2.40;;
15063;SDS011;7631;52.088;5.088;2023-03-13T00:06:19;8.40;;;2.90;;
15063;SDS011;7631;52.088;5.088;2023-03-13T00:08:44;7.37;;;2.50;;
15063;SDS011;7631;52.088;5.088;2023-03-13T00:11:10;5.70;;;2.30;;
15063;SDS011;7631;52.088;5.088;2023-03-13T00:13:35;7.73;;;2.70;;
15063;SDS011;7631;52.088;5.088;2023-03-13T00:16:01;7.60;;;2.83;;
15063;SDS011;7631;52.088;5.088;2023-03-13T00:18:27;6.30;;;2.20;;
15063;SDS011;7631;52.088;5.088;2023-03-13T00:21:26;9.20;;;2.40;;
15063;SDS011;7631;52.088;5.088;2023-03-13T00:23:43;7.90;;;2.47;;
15063;SDS011;7631;52.088;5.088;2023-03-13T00:26:10;8.63;;;2.40;;
15063;SDS011;7631;52.088;5.088;2023-03-13T00:28:36;7.80;;;2.73;;
15063;SDS011;7631;52.088;5.088;2023-03-13T00:31:02;7.30;;;2.60;;
15063;SDS011;7631;52.088;5.088;2023-03-13T00:33:27;6.77;;;2.40;;
15063;SDS011;7631;52.088;5.088;2023-03-13T00:35:56;7.37;;;2.40;;
15063;SDS011;7631;52.088;5.088;2023-03-13T00:38:21;5.93;;;2.20;;
15063;SDS011;7631;52.088;5.088;2023-03-13T00:40:47;7.43;;;2.33;;
15063;SDS011;7631;52.088;5.088;2023-03-13T00:43:12;7.80;;;2.67;;
15063;SDS011;7631;52.088;5.088;2023-03-13T00:45:37;9.27;;;2.87;;
15063;SDS011;7631;52.088;5.088;2023-03-13T00:48:02;6.53;;;2.80;;
15063;SDS011;7631;52.088;5.088;2023-03-13T00:50:27;7.00;;;2.23;;
15063;SDS011;7631;52.088;5.088;2023-03-13T00:52:53;6.53;;;2.63;;
15063;SDS011;7631;52.088;5.088;2023-03-13T00:55:18;7.33;;;2.70;;
15063;SDS011;7631;52.088;5.088;2023-03-13T00:57:43;5.67;;;2.30;;
15063;SDS011;7631;52.088;5.088;2023-03-13T01:00:08;6.43;;;2.80;;
15063;SDS011;7631;52.088;5.088;2023-03-13T01:02:34;5.27;;;2.47;;
15063;SDS011;7631;52.088;5.088;2023-03-13T01:05:04;5.20;;;2.47;;
15063;SDS011;7631;52.088;5.088;2023-03-13T01:07:30;5.70;;;2.53;;
15063;SDS011;7631;52.088;5.088;2023-03-13T01:09:55;5.57;;;2.40;;
15063;SDS011;7631;52.088;5.088;2023-03-13T01:12:20;8.23;;;2.37;;
15063;SDS011;7631;52.088;5.088;2023-03-13T01:14:48;7.80;;;2.23;;
15063;SDS011;7631;52.088;5.088;2023-03-13T01:17:13;8.27;;;2.63;;
15063;SDS011;7631;52.088;5.088;2023-03-13T01:19:38;6.37;;;2.27;;
15063;SDS011;7631;52.088;5.088;2023-03-13T01:22:04;5.77;;;2.50;;
15063;SDS011;7631;52.088;5.088;2023-03-13T01:24:29;5.97;;;2.73;;
15063;SDS011;7631;52.088;5.088;2023-03-13T01:26:54;7.93;;;2.20;;
15063;SDS011;7631;52.088;5.088;2023-03-13T01:29:19;7.23;;;2.57;;
15063;SDS011;7631;52.088;5.088;2023-03-13T01:31:44;6.87;;;2.33;;
15063;SDS011;7631;52.088;5.088;2023-03-13T01:34:10;7.17;;;2.13;;
15063;SDS011;7631;52.088;5.088;2023-03-13T01:36:35;6.33;;;2.77;;
15063;SDS011;7631;52.088;5.088;2023-03-13T01:39:01;5.50;;;2.17;;
15063;SDS011;7631;52.088;5.088;2023-03-13T01:41:27;7.03;;;2.70;;
15063;SDS011;7631;52.088;5.088;2023-03-13T01:43:53;6.27;;;2.80;;
15063;SDS011;7631;52.088;5.088;2023-03-13T01:46:23;4.37;;;2.23;;
15063;SDS011;7631;52.088;5.088;2023-03-13T01:54:23;5.77;;;2.10;;
15063;SDS011;7631;52.088;5.088;2023-03-13T01:59:12;6.50;;;2.40;;
15063;SDS011;7631;52.088;5.088;2023-03-13T02:01:39;5.07;;;2.20;;
15063;SDS011;7631;52.088;5.088;2023-03-13T02:04:05;5.63;;;2.33;;
15063;SDS011;7631;52.088;5.088;2023-03-13T02:06:31;6.03;;;2.33;;
15063;SDS011;7631;52.088;5.088;2023-03-13T02:08:58;5.27;;;2.37;;
15063;SDS011;7631;52.088;5.088;2023-03-13T02:11:31;6.60;;;2.50;;
15063;SDS011;7631;52.088;5.088;2023-03-13T02:13:59;6.77;;;3.10;;
15063;SDS011;7631;52.088;5.088;2023-03-13T02:16:26;4.33;;;2.43;;
15063;SDS011;7631;52.088;5.088;2023-03-13T02:18:51;4.30;;;2.30;;
15063;SDS011;7631;52.088;5.088;2023-03-13T02:23:57;5.50;;;2.70;;
15063;SDS011;7631;52.088;5.088;2023-03-13T02:26:23;4.90;;;2.27;;
15063;SDS011;7631;52.088;5.088;2023-03-13T02:28:48;5.37;;;2.70;;
15063;SDS011;7631;52.088;5.088;2023-03-13T02:31:14;5.30;;;2.43;;
15063;SDS011;7631;52.088;5.088;2023-03-13T02:33:40;6.10;;;2.87;;
15063;SDS011;7631;52.088;5.088;2023-03-13T02:36:06;4.03;;;2.50;;
15063;SDS011;7631;52.088;5.088;2023-03-13T02:38:33;4.90;;;2.60;;
15063;SDS011;7631;52.088;5.088;2023-03-13T02:40:58;4.17;;;2.50;;
15063;SDS011;7631;52.088;5.088;2023-03-13T02:43:27;5.33;;;3.03;;
15063;SDS011;7631;52.088;5.088;2023-03-13T02:46:04;4.90;;;2.93;;
15063;SDS011;7631;52.088;5.088;2023-03-13T02:48:34;4.27;;;2.67;;
15063;SDS011;7631;52.088;5.088;2023-03-13T02:51:01;4.23;;;2.60;;
15063;SDS011;7631;52.088;5.088;2023-03-13T02:53:27;5.27;;;3.27;;
15063;SDS011;7631;52.088;5.088;2023-03-13T02:55:52;5.10;;;3.13;;
15063;SDS011;7631;52.088;5.088;2023-03-13T02:58:17;4.17;;;2.90;;
15063;SDS011;7631;52.088;5.088;2023-03-13T03:00:43;4.10;;;2.93;;
15063;SDS011;7631;52.088;5.088;2023-03-13T03:03:08;5.47;;;3.40;;
15063;SDS011;7631;52.088;5.088;2023-03-13T03:05:34;4.67;;;3.40;;
15063;SDS011;7631;52.088;5.088;2023-03-13T03:07:59;4.97;;;3.10;;
15063;SDS011;7631;52.088;5.088;2023-03-13T03:10:24;4.80;;;3.57;;
15063;SDS011;7631;52.088;5.088;2023-03-13T03:12:49;5.03;;;3.20;;
15063;SDS011;7631;52.088;5.088;2023-03-13T03:15:14;4.03;;;3.13;;
15063;SDS011;7631;52.088;5.088;2023-03-13T03:17:40;5.60;;;3.30;;
15063;SDS011;7631;52.088;5.088;2023-03-13T03:20:05;6.30;;;3.50;;
15063;SDS011;7631;52.088;5.088;2023-03-13T03:22:36;5.73;;;3.10;;
15063;SDS011;7631;52.088;5.088;2023-03-13T03:25:02;6.03;;;2.97;;
15063;SDS011;7631;52.088;5.088;2023-03-13T03:27:28;5.20;;;2.90;;
15063;SDS011;7631;52.088;5.088;2023-03-13T03:29:55;5.13;;;3.07;;
15063;SDS011;7631;52.088;5.088;2023-03-13T03:32:21;4.47;;;3.40;;
15063;SDS011;7631;52.088;5.088;2023-03-13T03:34:46;4.40;;;2.63;;
15063;SDS011;7631;52.088;5.088;2023-03-13T03:37:11;4.70;;;2.80;;
15063;SDS011;7631;52.088;5.088;2023-03-13T03:39:36;4.63;;;3.13;;
15063;SDS011;7631;52.088;5.088;2023-03-13T03:42:01;4.27;;;2.90;;
15063;SDS011;7631;52.088;5.088;2023-03-13T03:44:28;3.50;;;2.90;;
15063;SDS011;7631;52.088;5.088;2023-03-13T03:46:53;3.53;;;2.87;;
15063;SDS011;7631;52.088;5.088;2023-03-13T03:49:19;4.80;;;3.17;;
15063;SDS011;7631;52.088;5.088;2023-03-13T03:51:44;4.00;;;2.77;;
15063;SDS011;7631;52.088;5.088;2023-03-13T03:54:09;4.17;;;2.77;;
15063;SDS011;7631;52.088;5.088;2023-03-13T03:56:34;4.40;;;3.00;;
15063;SDS011;7631;52.088;5.088;2023-03-13T03:58:59;4.43;;;2.83;;
15063;SDS011;7631;52.088;5.088;2023-03-13T04:01:25;4.20;;;2.83;;
15063;SDS011;7631;52.088;5.088;2023-03-13T04:03:50;4.43;;;2.70;;
15063;SDS011;7631;52.088;5.088;2023-03-13T04:06:15;4.40;;;2.87;;
15063;SDS011;7631;52.088;5.088;2023-03-13T04:08:40;3.10;;;2.60;;
15063;SDS011;7631;52.088;5.088;2023-03-13T04:11:05;3.73;;;2.40;;
15063;SDS011;7631;52.088;5.088;2023-03-13T04:13:31;3.50;;;2.80;;
15063;SDS011;7631;52.088;5.088;2023-03-13T04:15:56;3.80;;;2.57;;
15063;SDS011;7631;52.088;5.088;2023-03-13T04:18:21;4.37;;;2.43;;
15063;SDS011;7631;52.088;5.088;2023-03-13T04:20:46;4.40;;;2.80;;
15063;SDS011;7631;52.088;5.088;2023-03-13T04:23:11;3.00;;;2.37;;
15063;SDS011;7631;52.088;5.088;2023-03-13T04:25:37;4.67;;;2.50;;
15063;SDS011;7631;52.088;5.088;2023-03-13T04:28:02;4.13;;;2.37;;
15063;SDS011;7631;52.088;5.088;2023-03-13T04:30:27;3.30;;;2.23;;
15063;SDS011;7631;52.088;5.088;2023-03-13T04:32:52;4.40;;;2.53;;
15063;SDS011;7631;52.088;5.088;2023-03-13T04:35:18;3.73;;;2.43;;
15063;SDS011;7631;52.088;5.088;2023-03-13T04:37:43;2.63;;;2.20;;
15063;SDS011;7631;52.088;5.088;2023-03-13T04:40:08;3.70;;;2.20;;
15063;SDS011;7631;52.088;5.088;2023-03-13T04:42:33;2.90;;;2.57;;
15063;SDS011;7631;52.088;5.088;2023-03-13T04:44:59;4.13;;;2.70;;
15063;SDS011;7631;52.088;5.088;2023-03-13T04:47:24;4.33;;;2.70;;
15063;SDS011;7631;52.088;5.088;2023-03-13T04:49:49;3.97;;;2.70;;
15063;SDS011;7631;52.088;5.088;2023-03-13T04:52:14;4.43;;;2.20;;
15063;SDS011;7631;52.088;5.088;2023-03-13T04:54:40;3.10;;;2.33;;
15063;SDS011;7631;52.088;5.088;2023-03-13T04:57:05;3.77;;;2.60;;
15063;SDS011;7631;52.088;5.088;2023-03-13T04:59:30;4.10;;;2.57;;
15063;SDS011;7631;52.088;5.088;2023-03-13T05:01:55;3.47;;;2.53;;
15063;SDS011;7631;52.088;5.088;2023-03-13T05:04:20;4.47;;;2.70;;
15063;SDS011;7631;52.088;5.088;2023-03-13T05:06:46;3.13;;;2.73;;
15063;SDS011;7631;52.088;5.088;2023-03-13T05:09:11;3.00;;;2.37;;
15063;SDS011;7631;52.088;5.088;2023-03-13T05:11:36;3.37;;;2.47;;
15063;SDS011;7631;52.088;5.088;2023-03-13T05:14:01;3.67;;;2.60;;
15063;SDS011;7631;52.088;5.088;2023-03-13T05:16:28;3.33;;;2.23;;
15063;SDS011;7631;52.088;5.088;2023-03-13T05:18:53;3.57;;;2.73;;
15063;SDS011;7631;52.088;5.088;2023-03-13T05:21:18;3.37;;;2.33;;
15063;SDS011;7631;52.088;5.088;2023-03-13T05:23:43;3.70;;;2.60;;
15063;SDS011;7631;52.088;5.088;2023-03-13T05:26:09;3.40;;;2.23;;
15063;SDS011;7631;52.088;5.088;2023-03-13T05:28:34;3.87;;;2.60;;
15063;SDS011;7631;52.088;5.088;2023-03-13T05:30:59;3.07;;;2.57;;
15063;SDS011;7631;52.088;5.088;2023-03-13T05:33:24;4.20;;;2.70;;
15063;SDS011;7631;52.088;5.088;2023-03-13T05:35:49;4.07;;;2.60;;
15063;SDS011;7631;52.088;5.088;2023-03-13T05:38:15;3.20;;;2.10;;
15063;SDS011;7631;52.088;5.088;2023-03-13T05:40:40;3.63;;;2.50;;
15063;SDS011;7631;52.088;5.088;2023-03-13T05:43:05;3.37;;;2.37;;
15063;SDS011;7631;52.088;5.088;2023-03-13T05:45:30;3.20;;;2.47;;
15063;SDS011;7631;52.088;5.088;2023-03-13T05:47:56;3.60;;;2.40;;
15063;SDS011;7631;52.088;5.088;2023-03-13T05:50:23;3.27;;;2.10;;
15063;SDS011;7631;52.088;5.088;2023-03-13T05:52:48;5.30;;;2.40;;
15063;SDS011;7631;52.088;5.088;2023-03-13T05:55:13;3.97;;;2.23;;
15063;SDS011;7631;52.088;5.088;2023-03-13T05:57:38;6.13;;;2.90;;
15063;SDS011;7631;52.088;5.088;2023-03-13T06:00:04;4.00;;;2.17;;
15063;SDS011;7631;52.088;5.088;2023-03-13T06:02:29;4.20;;;2.50;;
15063;SDS011;7631;52.088;5.088;2023-03-13T06:04:55;3.53;;;2.57;;
15063;SDS011;7631;52.088;5.088;2023-03-13T06:07:20;4.97;;;2.40;;
15063;SDS011;7631;52.088;5.088;2023-03-13T06:09:45;2.97;;;2.20;;
15063;SDS011;7631;52.088;5.088;2023-03-13T06:12:10;3.50;;;2.40;;
15063;SDS011;7631;52.088;5.088;2023-03-13T06:14:36;3.77;;;2.43;;
15063;SDS011;7631;52.088;5.088;2023-03-13T06:17:02;3.30;;;2.10;;
15063;SDS011;7631;52.088;5.088;2023-03-13T06:19:27;3.80;;;2.60;;
15063;SDS011;7631;52.088;5.088;2023-03-13T06:21:52;4.47;;;2.40;;
15063;SDS011;7631;52.088;5.088;2023-03-13T06:24:17;2.60;;;1.87;;
15063;SDS011;7631;52.088;5.088;2023-03-13T06:26:43;4.83;;;2.50;;
15063;SDS011;7631;52.088;5.088;2023-03-13T06:29:09;3.90;;;2.20;;
15063;SDS011;7631;52.088;5.088;2023-03-13T06:31:34;6.13;;;2.77;;
15063;SDS011;7631;52.088;5.088;2023-03-13T06:33:59;5.13;;;2.50;;
15063;SDS011;7631;52.088;5.088;2023-03-13T06:36:25;3.10;;;2.20;;
15063;SDS011;7631;52.088;5.088;2023-03-13T06:38:50;5.07;;;2.40;;
15063;SDS011;7631;52.088;5.088;2023-03-13T06:41:16;2.80;;;2.10;;
15063;SDS011;7631;52.088;5.088;2023-03-13T06:43:42;6.40;;;2.67;;
15063;SDS011;7631;52.088;5.088;2023-03-13T06:46:07;3.80;;;2.30;;
15063;SDS011;7631;52.088;5.088;2023-03-13T06:48:34;4.37;;;2.10;;
15063;SDS011;7631;52.088;5.088;2023-03-13T06:50:59;3.60;;;2.40;;
15063;SDS011;7631;52.088;5.088;2023-03-13T06:53:24;5.13;;;2.40;;
15063;SDS011;7631;52.088;5.088;2023-03-13T06:55:50;4.60;;;2.60;;
15063;SDS011;7631;52.088;5.088;2023-03-13T06:58:15;4.83;;;2.10;;
15063;SDS011;7631;52.088;5.088;2023-03-13T07:00:40;4.00;;;2.20;;
15063;SDS011;7631;52.088;5.088;2023-03-13T07:03:08;3.43;;;2.37;;
15063;SDS011;7631;52.088;5.088;2023-03-13T07:05:33;5.63;;;3.10;;
15063;SDS011;7631;52.088;5.088;2023-03-13T07:07:58;4.80;;;2.57;;
15063;SDS011;7631;52.088;5.088;2023-03-13T07:10:23;5.17;;;2.67;;
15063;SDS011;7631;52.088;5.088;2023-03-13T07:12:51;5.27;;;2.43;;
15063;SDS011;7631;52.088;5.088;2023-03-13T07:15:20;3.03;;;2.53;;
15063;SDS011;7631;52.088;5.088;2023-03-13T07:17:45;4.03;;;2.27;;
15063;SDS011;7631;52.088;5.088;2023-03-13T07:20:10;3.63;;;2.47;;
15063;SDS011;7631;52.088;5.088;2023-03-13T07:22:36;3.73;;;2.47;;
15063;SDS011;7631;52.088;5.088;2023-03-13T07:25:01;3.70;;;2.33;;
15063;SDS011;7631;52.088;5.088;2023-03-13T07:27:27;5.27;;;2.50;;
15063;SDS011;7631;52.088;5.088;2023-03-13T07:29:52;5.20;;;2.60;;
15063;SDS011;7631;52.088;5.088;2023-03-13T07:32:17;6.20;;;2.47;;
15063;SDS011;7631;52.088;5.088;2023-03-13T07:34:43;6.00;;;2.63;;
15063;SDS011;7631;52.088;5.088;2023-03-13T07:37:09;4.80;;;2.67;;
15063;SDS011;7631;52.088;5.088;2023-03-13T07:39:34;4.07;;;2.30;;
15063;SDS011;7631;52.088;5.088;2023-03-13T07:42:00;7.90;;;2.70;;
15063;SDS011;7631;52.088;5.088;2023-03-13T07:44:25;5.43;;;2.60;;
15063;SDS011;7631;52.088;5.088;2023-03-13T07:46:50;4.67;;;2.57;;
15063;SDS011;7631;52.088;5.088;2023-03-13T07:49:15;4.33;;;2.53;;
15063;SDS011;7631;52.088;5.088;2023-03-13T07:51:40;4.60;;;2.70;;
15063;SDS011;7631;52.088;5.088;2023-03-13T07:54:06;5.43;;;2.80;;
15063;SDS011;7631;52.088;5.088;2023-03-13T07:56:31;5.50;;;2.73;;
15063;SDS011;7631;52.088;5.088;2023-03-13T07:58:57;4.20;;;2.73;;
15063;SDS011;7631;52.088;5.088;2023-03-13T08:01:23;4.63;;;2.60;;
15063;SDS011;7631;52.088;5.088;2023-03-13T08:03:49;5.70;;;3.00;;
15063;SDS011;7631;52.088;5.088;2023-03-13T08:06:15;4.80;;;2.57;;
15063;SDS011;7631;52.088;5.088;2023-03-13T08:08:41;4.57;;;2.43;;
15063;SDS011;7631;52.088;5.088;2023-03-13T08:11:08;5.00;;;2.60;;
15063;SDS011;7631;52.088;5.088;2023-03-13T08:13:34;5.43;;;2.50;;
15063;SDS011;7631;52.088;5.088;2023-03-13T08:16:07;3.90;;;2.30;;
15063;SDS011;7631;52.088;5.088;2023-03-13T08:18:33;6.10;;;2.90;;
15063;SDS011;7631;52.088;5.088;2023-03-13T08:21:03;4.50;;;2.23;;
15063;SDS011;7631;52.088;5.088;2023-03-13T08:23:28;6.77;;;2.73;;
15063;SDS011;7631;52.088;5.088;2023-03-13T08:25:54;4.47;;;2.20;;
15063;SDS011;7631;52.088;5.088;2023-03-13T08:28:19;5.03;;;2.53;;
15063;SDS011;7631;52.088;5.088;2023-03-13T08:30:44;4.73;;;2.30;;
15063;SDS011;7631;52.088;5.088;2023-03-13T08:33:10;3.60;;;2.10;;
15063;SDS011;7631;52.088;5.088;2023-03-13T08:35:35;2.53;;;2.00;;
15063;SDS011;7631;52.088;5.088;2023-03-13T08:38:00;3.63;;;2.20;;
15063;SDS011;7631;52.088;5.088;2023-03-13T08:40:26;3.60;;;2.47;;
15063;SDS011;7631;52.088;5.088;2023-03-13T08:42:52;4.80;;;2.27;;
15063;SDS011;7631;52.088;5.088;2023-03-13T08:45:17;3.57;;;2.17;;
15063;SDS011;7631;52.088;5.088;2023-03-13T08:47:43;3.83;;;2.60;;
15063;SDS011;7631;52.088;5.088;2023-03-13T08:50:08;5.53;;;2.80;;
15063;SDS011;7631;52.088;5.088;2023-03-13T08:52:33;2.80;;;1.97;;
15063;SDS011;7631;52.088;5.088;2023-03-13T08:54:58;4.70;;;2.30;;
15063;SDS011;7631;52.088;5.088;2023-03-13T08:57:24;4.07;;;2.13;;
15063;SDS011;7631;52.088;5.088;2023-03-13T08:59:49;3.83;;;2.40;;
15063;SDS011;7631;52.088;5.088;2023-03-13T09:02:15;5.07;;;1.80;;
15063;SDS011;7631;52.088;5.088;2023-03-13T09:04:44;4.83;;;2.20;;
15063;SDS011;7631;52.088;5.088;2023-03-13T09:07:09;2.33;;;2.13;;
15063;SDS011;7631;52.088;5.088;2023-03-13T09:09:34;4.67;;;2.23;;
15063;SDS011;7631;52.088;5.088;2023-03-13T09:11:59;3.63;;;1.73;;
15063;SDS011;7631;52.088;5.088;2023-03-13T09:14:24;4.67;;;2.23;;
15063;SDS011;7631;52.088;5.088;2023-03-13T09:16:50;4.03;;;2.37;;
15063;SDS011;7631;52.088;5.088;2023-03-13T09:19:15;4.03;;;2.10;;
15063;SDS011;7631;52.088;5.088;2023-03-13T09:21:40;3.50;;;2.10;;
15063;SDS011;7631;52.088;5.088;2023-03-13T09:24:06;3.93;;;1.97;;
15063;SDS011;7631;52.088;5.088;2023-03-13T09:26:31;2.53;;;1.67;;
15063;SDS011;7631;52.088;5.088;2023-03-13T09:28:56;3.00;;;2.30;;
15063;SDS011;7631;52.088;5.088;2023-03-13T09:31:25;4.37;;;2.07;;
15063;SDS011;7631;52.088;5.088;2023-03-13T09:33:51;3.83;;;1.60;;
15063;SDS011;7631;52.088;5.088;2023-03-13T09:36:17;3.20;;;1.97;;
15063;SDS011;7631;52.088;5.088;2023-03-13T09:38:43;6.13;;;2.40;;
15063;SDS011;7631;52.088;5.088;2023-03-13T09:43:55;3.33;;;1.90;;
15063;SDS011;7631;52.088;5.088;2023-03-13T09:48:48;4.37;;;2.00;;
15063;SDS011;7631;52.088;5.088;2023-03-13T09:54:05;4.07;;;2.10;;
15063;SDS011;7631;52.088;5.088;2023-03-13T09:56:39;3.80;;;2.03;;
15063;SDS011;7631;52.088;5.088;2023-03-13T09:59:50;3.57;;;2.10;;
15063;SDS011;7631;52.088;5.088;2023-03-13T10:01:55;3.43;;;1.80;;
15063;SDS011;7631;52.088;5.088;2023-03-13T10:04:55;4.73;;;2.00;;
15063;SDS011;7631;52.088;5.088;2023-03-13T10:07:13;5.17;;;1.80;;
15063;SDS011;7631;52.088;5.088;2023-03-13T10:09:38;4.00;;;1.77;;
15063;SDS011;7631;52.088;5.088;2023-03-13T10:19:42;3.00;;;1.80;;
15063;SDS011;7631;52.088;5.088;2023-03-13T10:22:10;3.30;;;1.70;;
15063;SDS011;7631;52.088;5.088;2023-03-13T10:24:49;2.17;;;1.33;;
15063;SDS011;7631;52.088;5.088;2023-03-13T10:27:15;2.53;;;1.20;;
15063;SDS011;7631;52.088;5.088;2023-03-13T10:29:40;3.03;;;1.97;;
15063;SDS011;7631;52.088;5.088;2023-03-13T10:32:06;1.73;;;1.50;;
15063;SDS011;7631;52.088;5.088;2023-03-13T10:34:45;3.20;;;1.60;;
15063;SDS011;7631;52.088;5.088;2023-03-13T10:37:13;3.90;;;1.73;;
15063;SDS011;7631;52.088;5.088;2023-03-13T10:39:39;2.77;;;1.80;;
15063;SDS011;7631;52.088;5.088;2023-03-13T10:42:08;2.43;;;1.57;;
15063;SDS011;7631;52.088;5.088;2023-03-13T10:44:35;2.63;;;1.50;;
15063;SDS011;7631;52.088;5.088;2023-03-13T10:47:00;3.33;;;1.70;;
15063;SDS011;7631;52.088;5.088;2023-03-13T10:49:29;1.93;;;1.40;;
15063;SDS011;7631;52.088;5.088;2023-03-13T10:51:58;4.37;;;1.67;;
15063;SDS011;7631;52.088;5.088;2023-03-13T10:54:27;4.00;;;1.60;;
15063;SDS011;7631;52.088;5.088;2023-03-13T10:59:51;3.57;;;1.43;;
15063;SDS011;7631;52.088;5.088;2023-03-13T11:02:36;3.20;;;1.70;;
15063;SDS011;7631;52.088;5.088;2023-03-13T11:05:06;2.93;;;1.50;;
15063;SDS011;7631;52.088;5.088;2023-03-13T11:07:47;3.27;;;1.70;;
15063;SDS011;7631;52.088;5.088;2023-03-13T11:10:17;5.07;;;1.53;;
15063;SDS011;7631;52.088;5.088;2023-03-13T11:12:46;2.30;;;1.50;;
15063;SDS011;7631;52.088;5.088;2023-03-13T11:15:14;3.40;;;1.47;;
15063;SDS011;7631;52.088;5.088;2023-03-13T11:17:39;3.23;;;1.73;;
15063;SDS011;7631;52.088;5.088;2023-03-13T11:25:38;2.40;;;1.37;;
15063;SDS011;7631;52.088;5.088;2023-03-13T11:28:19;4.60;;;1.50;;
15063;SDS011;7631;52.088;5.088;2023-03-13T11:33:28;3.77;;;1.70;;
15063;SDS011;7631;52.088;5.088;2023-03-13T11:49:29;3.53;;;1.57;;
15063;SDS011;7631;52.088;5.088;2023-03-13T11:56:56;3.00;;;1.30;;
15063;SDS011;7631;52.088;5.088;2023-03-13T12:01:52;2.57;;;1.40;;
15063;SDS011;7631;52.088;5.088;2023-03-13T12:04:29;3.43;;;1.63;;
15063;SDS011;7631;52.088;5.088;2023-03-13T12:07:01;5.00;;;1.40;;
15063;SDS011;7631;52.088;5.088;2023-03-13T12:09:29;3.77;;;1.70;;
15063;SDS011;7631;52.088;5.088;2023-03-13T12:12:00;5.10;;;1.80;;
15063;SDS011;7631;52.088;5.088;2023-03-13T12:14:38;5.83;;;1.60;;
15063;SDS011;7631;52.088;5.088;2023-03-13T12:17:05;3.23;;;1.23;;
15063;SDS011;7631;52.088;5.088;2023-03-13T12:19:36;3.37;;;1.40;;
15063;SDS011;7631;52.088;5.088;2023-03-13T12:24:54;4.03;;;1.50;;
15063;SDS011;7631;52.088;5.088;2023-03-13T12:27:23;7.50;;;1.90;;
15063;SDS011;7631;52.088;5.088;2023-03-13T12:37:24;4.13;;;1.67;;
15063;SDS011;7631;52.088;5.088;2023-03-13T12:45:24;5.80;;;1.80;;
15063;SDS011;7631;52.088;5.088;2023-03-13T12:50:29;6.70;;;1.80;;
15063;SDS011;7631;52.088;5.088;2023-03-13T12:56:04;6.63;;;2.00;;
15063;SDS011;7631;52.088;5.088;2023-03-13T12:58:29;5.80;;;1.80;;
15063;SDS011;7631;52.088;5.088;2023-03-13T13:00:55;4.17;;;1.70;;
15063;SDS011;7631;52.088;5.088;2023-03-13T13:03:26;6.80;;;1.90;;
15063;SDS011;7631;52.088;5.088;2023-03-13T13:06:07;6.53;;;2.23;;
15063;SDS011;7631;52.088;5.088;2023-03-13T13:08:37;4.90;;;1.80;;
15063;SDS011;7631;52.088;5.088;2023-03-13T13:11:33;7.00;;;2.00;;
15063;SDS011;7631;52.088;5.088;2023-03-13T13:16:33;7.40;;;2.00;;
15063;SDS011;7631;52.088;5.088;2023-03-13T13:21:42;7.37;;;2.10;;
15063;SDS011;7631;52.088;5.088;2023-03-13T13:26:52;7.47;;;2.30;;
15063;SDS011;7631;52.088;5.088;2023-03-13T13:31:43;7.43;;;2.70;;
15063;SDS011;7631;52.088;5.088;2023-03-13T13:36:58;8.37;;;1.90;;
15063;SDS011;7631;52.088;5.088;2023-03-13T13:41:52;7.57;;;2.50;;
15063;SDS011;7631;52.088;5.088;2023-03-13T13:44:19;6.27;;;2.50;;
15063;SDS011;7631;52.088;5.088;2023-03-13T13:46:45;6.90;;;2.47;;
15063;SDS011;7631;52.088;5.088;2023-03-13T13:49:13;9.63;;;2.50;;
15063;SDS011;7631;52.088;5.088;2023-03-13T13:51:39;8.97;;;2.50;;
15063;SDS011;7631;52.088;5.088;2023-03-13T13:56:42;11.33;;;3.00;;
15063;SDS011;7631;52.088;5.088;2023-03-13T14:01:49;7.33;;;2.87;;
15063;SDS011;7631;52.088;5.088;2023-03-13T14:04:28;8.33;;;2.90;;
15063;SDS011;7631;52.088;5.088;2023-03-13T14:06:56;8.17;;;2.57;;
15063;SDS011;7631;52.088;5.088;2023-03-13T14:11:57;7.80;;;2.47;;
15063;SDS011;7631;52.088;5.088;2023-03-13T14:14:22;9.67;;;3.47;;
15063;SDS011;7631;52.088;5.088;2023-03-13T14:16:49;10.73;;;2.90;;
15063;SDS011;7631;52.088;5.088;2023-03-13T14:21:49;10.60;;;3.20;;
15063;SDS011;7631;52.088;5.088;2023-03-13T14:24:14;8.33;;;2.50;;
15063;SDS011;7631;52.088;5.088;2023-03-13T14:26:43;10.07;;;3.17;;
15063;SDS011;7631;52.088;5.088;2023-03-13T14:29:14;9.70;;;2.70;;
15063;SDS011;7631;52.088;5.088;2023-03-13T14:31:40;6.63;;;2.70;;
15063;SDS011;7631;52.088;5.088;2023-03-13T14:34:06;7.53;;;2.80;;
15063;SDS011;7631;52.088;5.088;2023-03-13T14:36:47;7.20;;;2.47;;
15063;SDS011;7631;52.088;5.088;2023-03-13T14:39:16;9.50;;;2.80;;
15063;SDS011;7631;52.088;5.088;2023-03-13T14:41:43;9.87;;;2.77;;
15063;SDS011;7631;52.088;5.088;2023-03-13T14:44:14;12.77;;;3.07;;
15063;SDS011;7631;52.088;5.088;2023-03-13T14:46:41;9.13;;;2.97;;
15063;SDS011;7631;52.088;5.088;2023-03-13T14:49:28;12.20;;;3.90;;
15063;SDS011;7631;52.088;5.088;2023-03-13T14:54:23;9.30;;;2.60;;
15063;SDS011;7631;52.088;5.088;2023-03-13T14:56:50;11.67;;;3.43;;
15063;SDS011;7631;52.088;5.088;2023-03-13T14:59:25;12.53;;;3.43;;
15063;SDS011;7631;52.088;5.088;2023-03-13T15:01:57;11.13;;;3.40;;
15063;SDS011;7631;52.088;5.088;2023-03-13T15:07:07;9.60;;;3.00;;
15063;SDS011;7631;52.088;5.088;2023-03-13T15:09:32;9.60;;;2.80;;
15063;SDS011;7631;52.088;5.088;2023-03-13T15:12:11;9.23;;;2.67;;
15063;SDS011;7631;52.088;5.088;2023-03-13T15:17:02;12.40;;;3.30;;
15063;SDS011;7631;52.088;5.088;2023-03-13T15:19:28;10.47;;;3.33;;
15063;SDS011;7631;52.088;5.088;2023-03-13T15:21:54;8.70;;;2.73;;
15063;SDS011;7631;52.088;5.088;2023-03-13T15:24:19;11.57;;;2.90;;
15063;SDS011;7631;52.088;5.088;2023-03-13T15:26:44;8.37;;;2.67;;
15063;SDS011;7631;52.088;5.088;2023-03-13T15:29:10;8.87;;;3.10;;
15063;SDS011;7631;52.088;5.088;2023-03-13T15:31:35;10.07;;;3.10;;
15063;SDS011;7631;52.088;5.088;2023-03-13T15:34:01;13.07;;;3.40;;
15063;SDS011;7631;52.088;5.088;2023-03-13T15:36:27;9.60;;;3.17;;
15063;SDS011;7631;52.088;5.088;2023-03-13T15:38:53;13.20;;;3.17;;
15063;SDS011;7631;52.088;5.088;2023-03-13T15:41:21;9.03;;;2.63;;
15063;SDS011;7631;52.088;5.088;2023-03-13T15:43:47;7.00;;;2.80;;
15063;SDS011;7631;52.088;5.088;2023-03-13T15:46:16;10.97;;;3.53;;
15063;SDS011;7631;52.088;5.088;2023-03-13T15:48:41;10.07;;;2.67;;
15063;SDS011;7631;52.088;5.088;2023-03-13T15:51:11;9.90;;;3.40;;
15063;SDS011;7631;52.088;5.088;2023-03-13T15:53:38;9.47;;;3.17;;
15063;SDS011;7631;52.088;5.088;2023-03-13T15:56:11;8.97;;;2.83;;
15063;SDS011;7631;52.088;5.088;2023-03-13T15:58:37;10.03;;;2.90;;
15063;SDS011;7631;52.088;5.088;2023-03-13T16:01:03;7.80;;;2.67;;
15063;SDS011;7631;52.088;5.088;2023-03-13T16:03:28;7.90;;;2.97;;
15063;SDS011;7631;52.088;5.088;2023-03-13T16:05:53;9.77;;;2.53;;
15063;SDS011;7631;52.088;5.088;2023-03-13T16:08:28;8.53;;;2.73;;
15063;SDS011;7631;52.088;5.088;2023-03-13T16:10:53;10.07;;;3.03;;
15063;SDS011;7631;52.088;5.088;2023-03-13T16:13:18;11.80;;;3.03;;
15063;SDS011;7631;52.088;5.088;2023-03-13T16:15:44;10.30;;;3.30;;
15063;SDS011;7631;52.088;5.088;2023-03-13T16:18:15;10.17;;;2.80;;
15063;SDS011;7631;52.088;5.088;2023-03-13T16:20:41;11.17;;;3.30;;
15063;SDS011;7631;52.088;5.088;2023-03-13T16:23:06;9.20;;;2.97;;
15063;SDS011;7631;52.088;5.088;2023-03-13T16:25:31;7.47;;;2.83;;
15063;SDS011;7631;52.088;5.088;2023-03-13T16:27:57;10.30;;;3.10;;
15063;SDS011;7631;52.088;5.088;2023-03-13T16:30:24;15.30;;;3.43;;
15063;SDS011;7631;52.088;5.088;2023-03-13T16:32:49;10.90;;;3.33;;
15063;SDS011;7631;52.088;5.088;2023-03-13T16:35:15;10.70;;;3.40;;
15063;SDS011;7631;52.088;5.088;2023-03-13T16:37:40;8.37;;;2.83;;
15063;SDS011;7631;52.088;5.088;2023-03-13T16:40:16;9.60;;;3.20;;
15063;SDS011;7631;52.088;5.088;2023-03-13T16:42:41;11.50;;;3.40;;
15063;SDS011;7631;52.088;5.088;2023-03-13T16:45:07;6.63;;;2.77;;
15063;SDS011;7631;52.088;5.088;2023-03-13T16:47:32;7.87;;;2.63;;
15063;SDS011;7631;52.088;5.088;2023-03-13T16:49:59;11.53;;;3.40;;
15063;SDS011;7631;52.088;5.088;2023-03-13T16:52:24;9.43;;;2.93;;